createdAt,value
2018-06-13T00:00:36.147Z,23.5
2018-06-13T00:01:38.867Z,23.5
2018-06-13T00:02:41.574Z,23.5
2018-06-13T00:03:44.287Z,23.5
2018-06-13T00:04:47.006Z,23.9
2018-06-13T00:05:49.723Z,23.9
2018-06-13T00:06:52.438Z,23.9
2018-06-13T00:07:55.149Z,23.9
2018-06-13T00:08:57.875Z,23.5
2018-06-13T00:10:00.600Z,23.5
2018-06-13T00:11:03.338Z,23.9
2018-06-13T00:12:06.049Z,23.5
2018-06-13T00:13:08.769Z,23.9
2018-06-13T00:14:11.485Z,23.9
2018-06-13T00:15:14.210Z,23.5
2018-06-13T00:16:16.936Z,23.5
2018-06-13T00:17:19.661Z,23.9
2018-06-13T00:18:22.542Z,23.9
2018-06-13T00:19:25.305Z,23.5
2018-06-13T00:20:28.031Z,23.5
2018-06-13T00:21:30.489Z,23.5
2018-06-13T00:22:33.204Z,23.5
2018-06-13T00:23:35.951Z,23.5
2018-06-13T00:24:38.871Z,23.9
2018-06-13T00:25:41.630Z,23.9
2018-06-13T00:26:44.357Z,23.5
2018-06-13T00:27:47.071Z,23.9
2018-06-13T00:28:49.796Z,23.9
2018-06-13T00:29:52.511Z,23.9
2018-06-13T00:30:55.229Z,23.5
2018-06-13T00:31:57.944Z,23.5
2018-06-13T00:33:00.666Z,23.5
2018-06-13T00:34:03.113Z,23.5
2018-06-13T00:35:05.840Z,23.5
2018-06-13T00:36:08.552Z,23.5
2018-06-13T00:37:11.240Z,23.5
2018-06-13T00:38:14.250Z,23.9
2018-06-13T00:39:16.991Z,23.9
2018-06-13T00:40:19.706Z,23.5
2018-06-13T00:41:22.433Z,23.5
2018-06-13T00:42:24.603Z,23.5
2018-06-13T00:43:27.337Z,23.9
2018-06-13T00:44:30.052Z,23.5
2018-06-13T00:45:32.515Z,23.5
2018-06-13T00:46:35.266Z,23.5
2018-06-13T00:47:37.979Z,23.5
2018-06-13T00:48:40.697Z,23.9
2018-06-13T00:49:43.428Z,23.5
2018-06-13T00:50:46.172Z,23.5
2018-06-13T00:51:48.909Z,23.5
2018-06-13T00:52:51.627Z,23.5
2018-06-13T00:53:54.371Z,23.9
2018-06-13T00:54:56.816Z,23.5
2018-06-13T00:55:59.530Z,23.5
2018-06-13T00:57:01.989Z,23.5
2018-06-13T00:58:04.707Z,23.5
2018-06-13T00:59:07.154Z,23.5
2018-06-13T01:00:09.620Z,23.5
2018-06-13T01:01:12.336Z,23.5
2018-06-13T01:02:14.784Z,23.5
2018-06-13T01:03:17.495Z,23.5
2018-06-13T01:04:19.955Z,23.5
2018-06-13T01:05:22.671Z,23.5
2018-06-13T01:06:25.395Z,23.5
2018-06-13T01:07:28.115Z,23.5
2018-06-13T01:08:30.826Z,23.5
2018-06-13T01:09:33.546Z,23.5
2018-06-13T01:10:36.267Z,23.9
2018-06-13T01:11:38.987Z,23.5
2018-06-13T01:12:41.702Z,23.9
2018-06-13T01:13:44.410Z,24.4
2018-06-13T01:14:47.129Z,23.9
2018-06-13T01:15:49.867Z,24.4
2018-06-13T01:16:52.580Z,24.4
2018-06-13T01:17:55.295Z,24.4
2018-06-13T01:18:58.008Z,24.9
2018-06-13T01:20:00.743Z,24.9
2018-06-13T01:21:03.184Z,24.9
2018-06-13T01:22:05.912Z,24.4
2018-06-13T01:23:08.639Z,24.4
2018-06-13T01:24:11.372Z,24.9
2018-06-13T01:25:14.087Z,25.4
2018-06-13T01:26:16.829Z,24.9
2018-06-13T01:27:19.543Z,25.4
2018-06-13T01:28:22.271Z,24.9
2018-06-13T01:29:24.879Z,24.9
2018-06-13T01:30:27.593Z,24.9
2018-06-13T01:31:30.305Z,24.9
2018-06-13T01:32:33.033Z,24.9
2018-06-13T01:33:35.761Z,25.4
2018-06-13T01:34:38.471Z,24.9
2018-06-13T01:35:41.202Z,25.4
2018-06-13T01:36:43.912Z,24.9
2018-06-13T01:37:46.639Z,25.4
2018-06-13T01:38:49.093Z,24.9
2018-06-13T01:39:51.537Z,24.9
2018-06-13T01:40:54.259Z,24.9
2018-06-13T01:41:56.976Z,24.9
2018-06-13T01:42:59.688Z,24.9
2018-06-13T01:44:02.399Z,24.9
2018-06-13T01:45:05.108Z,24.4
2018-06-13T01:46:07.828Z,24.4
2018-06-13T01:47:10.548Z,25.4
2018-06-13T01:48:13.277Z,24.4
2018-06-13T01:49:16.018Z,24.4
2018-06-13T01:50:18.744Z,24.9
2018-06-13T01:51:21.454Z,24.9
2018-06-13T01:52:24.189Z,24.4
2018-06-13T01:53:26.903Z,24.9
2018-06-13T01:54:29.624Z,24.9
2018-06-13T01:55:32.343Z,24.4
2018-06-13T01:56:35.057Z,24.9
2018-06-13T01:57:37.504Z,24.4
2018-06-13T01:58:40.217Z,24.4
2018-06-13T01:59:42.929Z,24.4
2018-06-13T02:00:45.378Z,24.4
2018-06-13T02:01:48.089Z,24.4
2018-06-13T02:02:50.537Z,24.4
2018-06-13T02:03:53.250Z,24.4
2018-06-13T02:04:55.971Z,24.4
2018-06-13T02:05:58.687Z,24.9
2018-06-13T02:07:01.409Z,24.4
2018-06-13T02:08:04.141Z,24.9
2018-06-13T02:09:06.877Z,24.4
2018-06-13T02:10:09.618Z,24.4
2018-06-13T02:11:12.337Z,23.9
2018-06-13T02:12:14.801Z,24.4
2018-06-13T02:13:17.518Z,24.9
2018-06-13T02:14:20.232Z,24.4
2018-06-13T02:15:22.943Z,24.4
2018-06-13T02:16:25.665Z,24.4
2018-06-13T02:17:28.394Z,24.4
2018-06-13T02:18:31.128Z,24.4
2018-06-13T02:19:33.847Z,24.4
2018-06-13T02:20:36.588Z,24.4
2018-06-13T02:21:39.417Z,24.4
2018-06-13T02:22:41.890Z,24.4
2018-06-13T02:23:44.609Z,24.4
2018-06-13T02:24:47.056Z,23.9
2018-06-13T02:25:49.784Z,24.4
2018-06-13T02:26:52.507Z,24.4
2018-06-13T02:27:55.220Z,23.9
2018-06-13T02:28:57.660Z,23.9
2018-06-13T02:30:00.387Z,23.9
2018-06-13T02:31:03.118Z,23.9
2018-06-13T02:32:05.832Z,24.4
2018-06-13T02:33:08.552Z,23.9
2018-06-13T02:34:11.277Z,24.4
2018-06-13T02:35:14.021Z,24.4
2018-06-13T02:36:16.769Z,23.9
2018-06-13T02:37:19.500Z,24.4
2018-06-13T02:38:22.227Z,23.9
2018-06-13T02:39:24.942Z,24.4
2018-06-13T02:40:27.660Z,23.9
2018-06-13T02:41:30.374Z,24.4
2018-06-13T02:42:33.095Z,24.4
2018-06-13T02:43:35.812Z,23.9
2018-06-13T02:44:38.527Z,24.4
2018-06-13T02:45:41.242Z,24.4
2018-06-13T02:46:43.954Z,23.9
2018-06-13T02:47:46.401Z,24.4
2018-06-13T02:48:49.132Z,23.9
2018-06-13T02:49:51.849Z,23.9
2018-06-13T02:50:54.569Z,23.9
2018-06-13T02:51:57.289Z,24.4
2018-06-13T02:53:00.010Z,24.4
2018-06-13T02:54:02.802Z,23.9
2018-06-13T02:55:05.514Z,23.9
2018-06-13T02:56:08.243Z,23.9
2018-06-13T02:57:10.963Z,23.9
2018-06-13T02:58:13.725Z,24.4
2018-06-13T02:59:16.445Z,23.9
2018-06-13T03:00:19.159Z,24.4
2018-06-13T03:01:21.887Z,23.9
2018-06-13T03:02:24.597Z,24.4
2018-06-13T03:03:27.325Z,24.4
2018-06-13T03:04:29.768Z,23.9
2018-06-13T03:05:32.548Z,24.4
2018-06-13T03:06:35.269Z,24.4
2018-06-13T03:07:37.983Z,24.4
2018-06-13T03:08:40.709Z,24.4
2018-06-13T03:09:43.192Z,24.4
2018-06-13T03:10:45.648Z,24.4
2018-06-13T03:11:48.360Z,24.4
2018-06-13T03:12:51.081Z,24.4
2018-06-13T03:13:53.825Z,24.9
2018-06-13T03:14:56.545Z,24.4
2018-06-13T03:15:59.284Z,24.9
2018-06-13T03:17:02.011Z,24.9
2018-06-13T03:18:04.746Z,24.9
2018-06-13T03:19:07.467Z,24.9
2018-06-13T03:20:09.919Z,25.4
2018-06-13T03:21:12.633Z,25.4
2018-06-13T03:22:15.346Z,25.4
2018-06-13T03:23:18.060Z,24.9
2018-06-13T03:24:20.771Z,24.9
2018-06-13T03:25:23.483Z,24.9
2018-06-13T03:26:26.197Z,25.4
2018-06-13T03:27:28.911Z,25.4
2018-06-13T03:28:31.356Z,24.9
2018-06-13T03:29:34.069Z,24.9
2018-06-13T03:30:36.784Z,24.4
2018-06-13T03:31:39.520Z,24.9
2018-06-13T03:32:42.246Z,24.9
2018-06-13T03:33:45.634Z,24.4
2018-06-13T03:34:48.627Z,24.9
2018-06-13T03:35:51.484Z,24.9
2018-06-13T03:36:54.305Z,24.9
2018-06-13T03:37:57.135Z,24.4
2018-06-13T03:38:59.888Z,24.4
2018-06-13T03:40:02.618Z,24.9
2018-06-13T03:41:05.444Z,24.4
2018-06-13T03:42:08.222Z,24.9
2018-06-13T03:43:10.944Z,24.9
2018-06-13T03:44:13.662Z,25.4
2018-06-13T03:45:16.371Z,24.9
2018-06-13T03:46:19.084Z,24.4
2018-06-13T03:47:21.534Z,24.4
2018-06-13T03:48:24.252Z,24.4
2018-06-13T03:49:26.979Z,24.4
2018-06-13T03:50:29.709Z,24.4
2018-06-13T03:51:32.420Z,24.9
2018-06-13T03:52:34.878Z,24.4
2018-06-13T03:53:37.594Z,24.4
2018-06-13T03:54:40.522Z,24.4
2018-06-13T03:55:43.237Z,24.9
2018-06-13T03:56:45.949Z,23.9
2018-06-13T03:57:48.663Z,24.9
2018-06-13T03:58:51.380Z,24.4
2018-06-13T03:59:54.094Z,24.4
2018-06-13T04:00:56.833Z,24.4
2018-06-13T04:01:59.544Z,23.9
2018-06-13T04:03:02.265Z,24.4
2018-06-13T04:04:05.009Z,24.4
2018-06-13T04:05:07.729Z,24.4
2018-06-13T04:06:10.459Z,23.9
2018-06-13T04:07:13.360Z,24.4
2018-06-13T04:08:16.246Z,24.4
2018-06-13T04:09:18.972Z,24.9
2018-06-13T04:10:21.691Z,24.4
2018-06-13T04:11:24.400Z,24.4
2018-06-13T04:12:27.127Z,24.4
2018-06-13T04:13:29.836Z,23.9
2018-06-13T04:14:32.548Z,23.9
2018-06-13T04:15:35.269Z,24.4
2018-06-13T04:16:37.990Z,24.4
2018-06-13T04:17:40.718Z,24.4
2018-06-13T04:18:43.621Z,24.4
2018-06-13T04:19:46.346Z,23.9
2018-06-13T04:20:49.082Z,24.4
2018-06-13T04:21:51.830Z,24.4
2018-06-13T04:22:54.569Z,23.9
2018-06-13T04:23:57.297Z,24.4
2018-06-13T04:25:00.016Z,24.4
2018-06-13T04:26:02.727Z,23.9
2018-06-13T04:27:05.478Z,23.9
2018-06-13T04:28:08.209Z,23.9
2018-06-13T04:29:10.936Z,23.9
2018-06-13T04:30:13.669Z,23.9
2018-06-13T04:31:16.409Z,23.9
2018-06-13T04:32:19.134Z,23.5
2018-06-13T04:33:21.629Z,23.9
2018-06-13T04:34:24.348Z,23.5
2018-06-13T04:35:27.101Z,23.9
2018-06-13T04:36:29.814Z,23.9
2018-06-13T04:37:32.545Z,23.5
2018-06-13T04:38:34.994Z,23.9
2018-06-13T04:39:37.715Z,23.9
2018-06-13T04:40:40.157Z,24.4
2018-06-13T04:41:42.869Z,23.5
2018-06-13T04:42:45.586Z,23.9
2018-06-13T04:43:48.323Z,23.9
2018-06-13T04:44:51.045Z,23.9
2018-06-13T04:45:53.777Z,23.5
2018-06-13T04:46:56.484Z,23.9
2018-06-13T04:47:59.369Z,24.4
2018-06-13T04:49:02.086Z,23.9
2018-06-13T04:50:04.818Z,24.4
2018-06-13T04:51:07.535Z,24.4
2018-06-13T04:52:10.265Z,24.4
2018-06-13T04:53:12.980Z,23.9
2018-06-13T04:54:15.928Z,24.4
2018-06-13T04:55:18.661Z,24.4
2018-06-13T04:56:21.433Z,24.9
2018-06-13T04:57:24.145Z,24.9
2018-06-13T04:58:27.080Z,24.4
2018-06-13T04:59:29.796Z,24.4
2018-06-13T05:00:32.498Z,24.4
2018-06-13T05:01:35.220Z,24.4
2018-06-13T05:02:37.687Z,24.4
2018-06-13T05:03:40.410Z,24.9
2018-06-13T05:04:43.139Z,24.9
2018-06-13T05:05:45.865Z,24.9
2018-06-13T05:06:48.587Z,24.9
2018-06-13T05:07:51.319Z,24.4
2018-06-13T05:08:53.800Z,24.9
2018-06-13T05:09:56.533Z,24.4
2018-06-13T05:10:59.266Z,24.4
2018-06-13T05:12:01.693Z,24.4
2018-06-13T05:13:04.410Z,24.4
2018-06-13T05:14:07.158Z,24.9
2018-06-13T05:15:09.898Z,24.9
2018-06-13T05:16:12.622Z,24.4
2018-06-13T05:17:15.354Z,25.4
2018-06-13T05:18:18.106Z,24.9
2018-06-13T05:19:20.769Z,24.9
2018-06-13T05:20:23.482Z,24.4
2018-06-13T05:21:26.202Z,24.4
2018-06-13T05:22:28.949Z,24.4
2018-06-13T05:23:31.691Z,24.4
2018-06-13T05:24:34.456Z,23.9
2018-06-13T05:25:36.682Z,24.4
2018-06-13T05:26:39.430Z,24.4
2018-06-13T05:27:42.161Z,24.4
2018-06-13T05:28:45.167Z,24.4
2018-06-13T05:29:47.948Z,24.4
2018-06-13T05:30:50.699Z,23.9
2018-06-13T05:31:53.449Z,24.4
2018-06-13T05:32:56.213Z,24.4
2018-06-13T05:33:58.678Z,23.9
2018-06-13T05:35:01.420Z,24.4
2018-06-13T05:36:04.165Z,23.9
2018-06-13T05:37:06.902Z,24.4
2018-06-13T05:38:09.623Z,24.4
2018-06-13T05:39:12.353Z,23.9
2018-06-13T05:40:15.094Z,23.9
2018-06-13T05:41:17.821Z,24.4
2018-06-13T05:42:20.530Z,24.4
2018-06-13T05:43:23.240Z,24.4
2018-06-13T05:44:25.687Z,23.9
2018-06-13T05:45:28.408Z,23.9
2018-06-13T05:46:31.127Z,23.9
2018-06-13T05:47:33.850Z,24.4
2018-06-13T05:48:36.794Z,23.9
2018-06-13T05:49:39.241Z,24.4
2018-06-13T05:50:41.962Z,23.9
2018-06-13T05:51:44.691Z,23.9
2018-06-13T05:52:47.434Z,23.9
2018-06-13T05:53:50.171Z,23.9
2018-06-13T05:54:52.950Z,23.9
2018-06-13T05:55:55.490Z,23.9
2018-06-13T05:56:58.219Z,23.5
2018-06-13T05:58:01.384Z,23.9
2018-06-13T05:59:04.100Z,23.9
2018-06-13T06:00:06.827Z,23.5
2018-06-13T06:01:09.751Z,23.9
2018-06-13T06:02:12.529Z,23.5
2018-06-13T06:03:15.246Z,23.9
2018-06-13T06:04:17.967Z,23.5
2018-06-13T06:05:20.690Z,23.5
2018-06-13T06:06:23.423Z,23.9
2018-06-13T06:07:25.881Z,23.9
2018-06-13T06:08:28.625Z,23.5
2018-06-13T06:09:31.344Z,23.5
2018-06-13T06:10:34.478Z,23.5
2018-06-13T06:11:37.503Z,23.5
2018-06-13T06:12:40.439Z,23.5
2018-06-13T06:13:43.150Z,23.5
2018-06-13T06:14:45.897Z,23.5
2018-06-13T06:15:48.645Z,23.5
2018-06-13T06:16:51.378Z,23.5
2018-06-13T06:17:54.091Z,23.5
2018-06-13T06:18:56.557Z,23
2018-06-13T06:19:59.279Z,23.5
2018-06-13T06:21:01.993Z,23.5
2018-06-13T06:22:04.718Z,23.5
2018-06-13T06:23:07.172Z,23.5
2018-06-13T06:24:09.900Z,23.5
2018-06-13T06:25:12.628Z,23.5
2018-06-13T06:26:15.359Z,23.9
2018-06-13T06:27:18.080Z,23.5
2018-06-13T06:28:20.798Z,23.5
2018-06-13T06:29:23.523Z,23.5
2018-06-13T06:30:26.244Z,23.5
2018-06-13T06:31:29.021Z,23.9
2018-06-13T06:32:31.730Z,23.9
2018-06-13T06:33:34.457Z,23.9
2018-06-13T06:34:37.167Z,23.9
2018-06-13T06:35:39.878Z,23.9
2018-06-13T06:36:42.332Z,23.9
2018-06-13T06:37:45.057Z,24.4
2018-06-13T06:38:47.780Z,24.4
2018-06-13T06:39:50.513Z,23.9
2018-06-13T06:40:53.230Z,24.4
2018-06-13T06:41:55.971Z,24.9
2018-06-13T06:42:58.693Z,24.4
2018-06-13T06:44:01.412Z,24.4
2018-06-13T06:45:03.854Z,24.4
2018-06-13T06:46:06.579Z,24.4
2018-06-13T06:47:09.331Z,24.4
2018-06-13T06:48:12.070Z,24.9
2018-06-13T06:49:14.799Z,24.4
2018-06-13T06:50:17.529Z,24.4
2018-06-13T06:51:20.264Z,24.9
2018-06-13T06:52:22.999Z,24.4
2018-06-13T06:53:25.742Z,24.4
2018-06-13T06:54:28.469Z,24.4
2018-06-13T06:55:31.526Z,24.9
2018-06-13T06:56:34.407Z,24.4
2018-06-13T06:57:36.847Z,24.4
2018-06-13T06:58:39.770Z,24.4
2018-06-13T06:59:42.491Z,24.4
2018-06-13T07:00:44.970Z,24.4
2018-06-13T07:01:47.430Z,24.4
2018-06-13T07:02:50.233Z,24.4
2018-06-13T07:03:52.972Z,23.9
2018-06-13T07:04:55.691Z,23.9
2018-06-13T07:05:58.419Z,23.9
2018-06-13T07:07:00.864Z,23.9
2018-06-13T07:08:03.588Z,23.9
2018-06-13T07:09:06.318Z,23.9
2018-06-13T07:10:08.774Z,23.9
2018-06-13T07:11:11.528Z,23.9
2018-06-13T07:12:14.244Z,23.5
2018-06-13T07:13:17.275Z,23.5
2018-06-13T07:14:19.918Z,23.9
2018-06-13T07:15:22.639Z,23.9
2018-06-13T07:16:25.092Z,23.5
2018-06-13T07:17:27.830Z,23.9
2018-06-13T07:18:30.542Z,23.9
2018-06-13T07:19:33.267Z,23.9
2018-06-13T07:20:35.978Z,23.5
2018-06-13T07:21:38.722Z,23.5
2018-06-13T07:22:41.442Z,23.5
2018-06-13T07:23:44.176Z,23.9
2018-06-13T07:24:47.047Z,23.5
2018-06-13T07:25:49.788Z,23.9
2018-06-13T07:26:52.518Z,23.5
2018-06-13T07:27:55.236Z,23.5
2018-06-13T07:28:58.008Z,23.5
2018-06-13T07:30:00.740Z,23.5
2018-06-13T07:31:03.452Z,23.5
2018-06-13T07:32:06.186Z,23.5
2018-06-13T07:33:08.923Z,23.5
2018-06-13T07:34:11.664Z,23.9
2018-06-13T07:35:14.397Z,23.5
2018-06-13T07:36:16.849Z,23.5
2018-06-13T07:37:19.562Z,23.9
2018-06-13T07:38:22.285Z,23.9
2018-06-13T07:39:25.017Z,23.5
2018-06-13T07:40:27.729Z,23.5
2018-06-13T07:41:30.289Z,23.5
2018-06-13T07:42:33.162Z,23.5
2018-06-13T07:43:35.900Z,23.5
2018-06-13T07:44:38.622Z,23.5
2018-06-13T07:45:41.327Z,23
2018-06-13T07:46:44.103Z,23.5
2018-06-13T07:47:46.831Z,23.5
2018-06-13T07:48:49.281Z,23.5
2018-06-13T07:49:52.008Z,23
2018-06-13T07:50:54.728Z,23.5
2018-06-13T07:51:57.465Z,23.5
2018-06-13T07:53:00.186Z,23
2018-06-13T07:54:02.906Z,23.5
2018-06-13T07:55:05.688Z,23
2018-06-13T07:56:08.482Z,23
2018-06-13T07:57:11.217Z,23.5
2018-06-13T07:58:13.946Z,23.5
2018-06-13T07:59:16.668Z,23.5
2018-06-13T08:00:19.385Z,23.5
2018-06-13T08:01:22.105Z,23.5
2018-06-13T08:02:24.823Z,23
2018-06-13T08:03:27.550Z,23.5
2018-06-13T08:04:30.030Z,23.5
2018-06-13T08:05:32.754Z,23.9
2018-06-13T08:06:35.469Z,23.9
2018-06-13T08:07:38.296Z,23.9
2018-06-13T08:08:41.737Z,23.5
2018-06-13T08:09:44.474Z,23.5
2018-06-13T08:10:47.200Z,23.9
2018-06-13T08:11:49.934Z,23.9
2018-06-13T08:12:52.403Z,24.4
2018-06-13T08:13:55.131Z,24.4
2018-06-13T08:14:57.567Z,23.9
2018-06-13T08:16:00.296Z,23.9
2018-06-13T08:17:03.016Z,23.9
2018-06-13T08:18:05.764Z,23.9
2018-06-13T08:19:08.489Z,24.9
2018-06-13T08:20:11.210Z,24.9
2018-06-13T08:21:13.940Z,24.4
2018-06-13T08:22:16.662Z,24.4
2018-06-13T08:23:19.392Z,24.4
2018-06-13T08:24:22.101Z,24.4
2018-06-13T08:25:24.838Z,24.9
2018-06-13T08:26:27.579Z,24.4
2018-06-13T08:27:30.330Z,24.4
2018-06-13T08:28:32.801Z,23.9
2018-06-13T08:29:35.532Z,24.9
2018-06-13T08:30:38.265Z,24.4
2018-06-13T08:31:41.021Z,24.4
2018-06-13T08:32:43.755Z,23.9
2018-06-13T08:33:46.785Z,23.9
2018-06-13T08:34:49.730Z,23.9
2018-06-13T08:35:52.456Z,23.9
2018-06-13T08:36:55.169Z,24.4
2018-06-13T08:37:57.893Z,23.9
2018-06-13T08:39:00.609Z,23.9
2018-06-13T08:40:03.350Z,24.4
2018-06-13T08:41:06.271Z,23.9
2018-06-13T08:42:09.007Z,23.9
2018-06-13T08:43:11.740Z,23.9
2018-06-13T08:44:14.459Z,23.9
2018-06-13T08:45:17.198Z,24.4
2018-06-13T08:46:19.931Z,23.9
2018-06-13T08:47:22.655Z,23.9
2018-06-13T08:48:25.381Z,23.9
2018-06-13T08:49:28.127Z,23.9
2018-06-13T08:50:30.865Z,23.9
2018-06-13T08:51:33.579Z,23.5
2018-06-13T08:52:36.309Z,23.9
2018-06-13T08:53:39.043Z,23.9
2018-06-13T08:54:41.767Z,23.9
2018-06-13T08:55:44.642Z,23.9
2018-06-13T08:56:47.478Z,23.9
2018-06-13T08:57:49.940Z,23.9
2018-06-13T08:58:52.702Z,23.9
2018-06-13T08:59:55.438Z,23.5
2018-06-13T09:00:58.188Z,23.9
2018-06-13T09:02:00.943Z,23.5
2018-06-13T09:03:03.670Z,23.9
2018-06-13T09:04:06.395Z,23.5
2018-06-13T09:05:08.844Z,23.9
2018-06-13T09:06:11.562Z,23.5
2018-06-13T09:07:14.287Z,23.9
2018-06-13T09:08:17.009Z,23.9
2018-06-13T09:09:19.740Z,23.9
2018-06-13T09:10:22.470Z,23.9
2018-06-13T09:11:25.200Z,23.9
2018-06-13T09:12:27.919Z,23.9
2018-06-13T09:13:30.663Z,23.9
2018-06-13T09:14:33.384Z,23.5
2018-06-13T09:15:36.136Z,23.5
2018-06-13T09:16:38.875Z,23.5
2018-06-13T09:17:41.607Z,23.5
2018-06-13T09:18:44.323Z,23.5
2018-06-13T09:19:46.762Z,23.9
2018-06-13T09:20:49.490Z,23.5
2018-06-13T09:21:52.220Z,23.5
2018-06-13T09:22:54.693Z,23.5
2018-06-13T09:23:57.418Z,23.5
2018-06-13T09:24:59.876Z,23.5
2018-06-13T09:26:02.347Z,23.5
2018-06-13T09:27:05.079Z,23
2018-06-13T09:28:07.808Z,23.5
2018-06-13T09:29:10.523Z,23.5
2018-06-13T09:30:12.976Z,23.5
2018-06-13T09:31:15.790Z,23.5
2018-06-13T09:32:18.696Z,23.5
2018-06-13T09:33:21.182Z,23.5
2018-06-13T09:34:23.911Z,23.5
2018-06-13T09:35:26.639Z,23.5
2018-06-13T09:36:29.385Z,23
2018-06-13T09:37:32.650Z,23.5
2018-06-13T09:38:35.353Z,23.5
2018-06-13T09:39:38.102Z,23.5
2018-06-13T09:40:40.832Z,23.5
2018-06-13T09:41:43.547Z,23.5
2018-06-13T09:42:46.270Z,23.5
2018-06-13T09:43:48.992Z,23
2018-06-13T09:44:51.700Z,23.5
2018-06-13T09:46:13.266Z,23.5
2018-06-13T09:47:24.684Z,23.5
2018-06-13T09:48:27.409Z,23.5
2018-06-13T09:49:30.149Z,23.5
2018-06-13T09:50:32.870Z,23.5
2018-06-13T09:51:35.584Z,23.9
2018-06-13T09:52:38.331Z,23.5
2018-06-13T09:53:40.772Z,24.4
2018-06-13T09:54:43.571Z,23.9
2018-06-13T09:55:46.382Z,23.9
2018-06-13T09:56:49.427Z,24.4
2018-06-13T09:57:52.380Z,24.4
2018-06-13T09:58:55.108Z,24.4
2018-06-13T09:59:57.828Z,24.4
2018-06-13T10:01:00.561Z,24.4
2018-06-13T10:02:03.301Z,24.4
2018-06-13T10:03:35.283Z,24.4
2018-06-13T10:04:37.933Z,24.9
2018-06-13T10:05:40.717Z,24.4
2018-06-13T10:06:43.441Z,24.4
2018-06-13T10:07:46.170Z,24.9
2018-06-13T10:08:49.150Z,24.4
2018-06-13T10:09:51.867Z,24.4
2018-06-13T10:10:54.584Z,24.4
2018-06-13T10:11:57.501Z,24.4
2018-06-13T10:13:00.430Z,24.4
2018-06-13T10:14:03.191Z,24.9
2018-06-13T10:15:05.933Z,24.4
2018-06-13T10:16:08.677Z,24.4
2018-06-13T10:17:11.406Z,23.9
2018-06-13T10:18:14.119Z,23.9
2018-06-13T10:19:16.594Z,23.9
2018-06-13T10:20:19.319Z,24.4
2018-06-13T10:21:22.056Z,24.4
2018-06-13T10:22:24.799Z,24.4
2018-06-13T10:23:27.523Z,24.4
2018-06-13T10:24:30.244Z,24.4
2018-06-13T10:25:33.323Z,24.4
2018-06-13T10:26:36.386Z,23.9
2018-06-13T10:27:39.185Z,23.9
2018-06-13T10:28:41.922Z,24.4
2018-06-13T10:29:44.650Z,24.4
2018-06-13T10:30:47.387Z,23.9
2018-06-13T10:31:49.859Z,23.9
2018-06-13T10:32:52.585Z,23.9
2018-06-13T10:33:55.298Z,23.9
2018-06-13T10:34:58.031Z,24.4
2018-06-13T10:36:00.202Z,24.4
2018-06-13T10:37:02.932Z,23.9
2018-06-13T10:38:05.677Z,23.9
2018-06-13T10:39:08.405Z,23.9
2018-06-13T10:40:11.121Z,24.4
2018-06-13T10:41:14.063Z,23.9
2018-06-13T10:42:16.805Z,24.4
2018-06-13T10:43:19.531Z,23.9
2018-06-13T10:44:22.246Z,23.5
2018-06-13T10:45:24.994Z,23.9
2018-06-13T10:46:27.715Z,23.9
2018-06-13T10:47:30.480Z,23.9
2018-06-13T10:48:33.399Z,23.9
2018-06-13T10:49:36.416Z,23.9
2018-06-13T10:50:39.151Z,23.5
2018-06-13T10:51:41.878Z,23.5
2018-06-13T10:52:44.585Z,23.5
2018-06-13T10:53:47.308Z,23.9
2018-06-13T10:54:50.035Z,23.9
2018-06-13T10:55:52.763Z,23.5
2018-06-13T10:56:55.493Z,23.9
2018-06-13T10:57:58.219Z,23.5
2018-06-13T10:59:00.951Z,23.5
2018-06-13T11:00:03.389Z,23.5
2018-06-13T11:01:06.123Z,23.9
2018-06-13T11:02:08.844Z,23.5
2018-06-13T11:03:11.621Z,23.9
2018-06-13T11:04:14.358Z,23.9
2018-06-13T11:05:17.078Z,23.9
2018-06-13T11:06:19.814Z,23.9
2018-06-13T11:07:22.532Z,23.9
2018-06-13T11:08:25.476Z,23.5
2018-06-13T11:09:28.201Z,23.9
2018-06-13T11:10:30.941Z,23.5
2018-06-13T11:11:33.680Z,23.5
2018-06-13T11:12:36.402Z,23.9
2018-06-13T11:13:38.847Z,23.9
2018-06-13T11:14:41.573Z,23.5
2018-06-13T11:15:44.311Z,23.5
2018-06-13T11:16:46.779Z,23.5
2018-06-13T11:17:49.502Z,23.5
2018-06-13T11:18:52.241Z,23.5
2018-06-13T11:19:54.971Z,23.5
2018-06-13T11:20:57.685Z,23.5
2018-06-13T11:22:00.406Z,23.5
2018-06-13T11:23:03.303Z,23.9
2018-06-13T11:24:05.751Z,23.5
2018-06-13T11:25:08.478Z,23.5
2018-06-13T11:26:11.064Z,23.5
2018-06-13T11:27:13.900Z,23.5
2018-06-13T11:28:16.639Z,23.5
2018-06-13T11:29:19.363Z,23.5
2018-06-13T11:30:22.101Z,23.5
2018-06-13T11:32:27.304Z,23.5
2018-06-13T11:33:30.030Z,23
2018-06-13T11:34:32.759Z,23.5
2018-06-13T11:35:35.479Z,23.5
2018-06-13T11:36:37.920Z,23
2018-06-13T11:37:40.661Z,23.9
2018-06-13T11:38:43.411Z,23.5
2018-06-13T11:39:46.149Z,23.5
2018-06-13T11:40:48.921Z,23.5
2018-06-13T11:41:51.644Z,23.5
2018-06-13T11:42:54.375Z,23.9
2018-06-13T11:43:57.122Z,23.9
2018-06-13T11:44:59.880Z,23.9
2018-06-13T11:46:02.628Z,24.4
2018-06-13T11:47:05.360Z,24.4
2018-06-13T11:48:08.201Z,23.9
2018-06-13T11:49:11.032Z,24.4
2018-06-13T11:50:13.758Z,24.4
2018-06-13T11:51:16.477Z,24.9
2018-06-13T11:52:19.214Z,24.4
2018-06-13T11:53:21.958Z,24.4
2018-06-13T11:54:24.679Z,24.4
2018-06-13T11:55:27.416Z,24.4
2018-06-13T11:56:30.151Z,24.4
2018-06-13T11:57:32.876Z,24.9
2018-06-13T11:58:35.598Z,24.4
2018-06-13T11:59:38.373Z,24.9
2018-06-13T12:00:41.101Z,24.9
2018-06-13T12:01:43.653Z,24.4
2018-06-13T12:02:46.582Z,24.4
2018-06-13T12:03:49.306Z,24.9
2018-06-13T12:04:52.063Z,24.4
2018-06-13T12:05:54.794Z,23.9
2018-06-13T12:06:57.543Z,24.4
2018-06-13T12:08:00.273Z,23.9
2018-06-13T12:09:02.988Z,24.4
2018-06-13T12:10:05.733Z,24.4
2018-06-13T12:11:08.482Z,23.9
2018-06-13T12:12:11.221Z,24.4
2018-06-13T12:13:13.959Z,23.9
2018-06-13T12:14:16.695Z,24.4
2018-06-13T12:15:19.444Z,23.9
2018-06-13T12:16:22.178Z,23.9
2018-06-13T12:17:24.903Z,24.4
2018-06-13T12:18:27.371Z,24.4
2018-06-13T12:19:30.096Z,23.9
2018-06-13T12:20:32.819Z,23.9
2018-06-13T12:21:35.551Z,23.9
2018-06-13T12:22:38.351Z,24.4
2018-06-13T12:23:41.223Z,23.9
2018-06-13T12:24:43.953Z,23.9
2018-06-13T12:25:46.677Z,23.9
2018-06-13T12:26:49.412Z,23.9
2018-06-13T12:27:52.128Z,23.9
2018-06-13T12:28:54.856Z,23.9
2018-06-13T12:29:57.591Z,23.9
2018-06-13T12:31:00.320Z,23.9
2018-06-13T12:32:03.050Z,23.5
2018-06-13T12:33:05.813Z,23.9
2018-06-13T12:34:08.651Z,23.9
2018-06-13T12:35:11.436Z,23.9
2018-06-13T12:36:14.151Z,23.9
2018-06-13T12:37:16.891Z,23.9
2018-06-13T12:38:19.619Z,23.9
2018-06-13T12:39:22.336Z,23.9
2018-06-13T12:40:25.083Z,23.9
2018-06-13T12:41:27.802Z,23.9
2018-06-13T12:42:30.526Z,23.9
2018-06-13T12:43:33.247Z,23.9
2018-06-13T16:15:09.107Z,22
2018-06-13T16:16:11.874Z,22
2018-06-13T16:17:14.866Z,22
2018-06-13T16:18:17.606Z,22
2018-06-13T16:19:20.359Z,22
2018-06-13T16:20:23.124Z,22.5
2018-06-13T16:21:25.844Z,23
2018-06-13T16:22:28.569Z,22.5
2018-06-13T16:23:31.308Z,23
2018-06-13T16:24:34.050Z,23
2018-06-13T16:25:36.784Z,23
2018-06-13T16:26:39.519Z,23.5
2018-06-13T16:27:42.244Z,23
2018-06-13T16:28:44.973Z,23
2018-06-13T16:29:47.701Z,23.5
2018-06-13T16:30:50.445Z,23.5
2018-06-13T16:31:53.169Z,23.5
2018-06-13T16:32:55.631Z,23.9
2018-06-13T16:33:58.349Z,23.5
2018-06-13T16:35:01.089Z,23.5
2018-06-13T16:36:03.817Z,23.5
2018-06-13T16:37:06.558Z,23.5
2018-06-13T16:38:09.294Z,23.5
2018-06-13T16:39:12.041Z,23.5
2018-06-13T16:40:14.791Z,23
2018-06-13T16:41:17.530Z,23.5
2018-06-13T16:42:20.264Z,23.9
2018-06-13T16:43:23.001Z,23.5
2018-06-13T16:44:25.724Z,23.5
2018-06-13T16:45:28.473Z,23.5
2018-06-13T16:46:31.209Z,23.5
2018-06-13T16:47:33.919Z,23
2018-06-13T16:48:37.112Z,23
2018-06-13T16:49:39.612Z,23.5
2018-06-13T16:50:42.340Z,23.5
2018-06-13T16:51:44.858Z,23.5
2018-06-13T16:52:47.594Z,23.5
2018-06-13T16:53:50.321Z,23
2018-06-13T16:54:53.120Z,23.5
2018-06-13T16:55:55.825Z,23.5
2018-06-13T16:56:58.564Z,23.5
2018-06-13T16:58:01.310Z,23.5
2018-06-13T16:59:04.030Z,23.5
2018-06-13T17:00:06.771Z,23.5
2018-06-13T17:01:09.504Z,23
2018-06-13T17:02:11.971Z,23.5
2018-06-13T17:03:14.695Z,23.5
2018-06-13T17:04:17.426Z,23.5
2018-06-13T17:05:20.161Z,23.5
2018-06-13T17:06:22.362Z,23.5
2018-06-13T17:07:25.083Z,23.9
2018-06-13T17:08:27.816Z,23.9
2018-06-13T17:09:30.561Z,23.9
2018-06-13T17:10:33.303Z,23.5
2018-06-13T17:11:36.050Z,23.9
2018-06-13T17:12:38.808Z,23.9
2018-06-13T17:13:41.226Z,23.9
2018-06-13T17:14:43.967Z,23.9
2018-06-13T17:15:46.702Z,23.9
2018-06-13T17:16:49.443Z,23.9
2018-06-13T17:17:52.181Z,24.4
2018-06-13T17:18:54.911Z,24.4
2018-06-13T17:19:57.631Z,23.9
2018-06-13T17:21:00.356Z,24.4
2018-06-13T17:22:03.088Z,24.4
2018-06-13T17:23:05.532Z,24.4
2018-06-13T17:24:08.283Z,24.4
2018-06-13T17:25:11.025Z,24.4
2018-06-13T17:26:13.754Z,24.4
2018-06-13T17:27:16.486Z,23.9
2018-06-13T17:28:19.215Z,24.4
2018-06-13T17:29:21.982Z,23.9